Tampa, Florida
Traffic Map
Current Weather Conditions
Tampa, Florida
Clear
Clear
21°
Feels Like: 21°
Wind Chill: 21° Ceiling: Unl
Heat Index: 21° Visibility: 9mi
Dew Point: 19° Wind: 5mph
Humidity: 87% Direction: 110° (ESE)
Pressure: 30.23in Gusts: 0mph
Raw Report DataKTPA 281053Z 11004KT 9SM CLR 21/19 A3023 RMK AO2 SLP237 T02110189
Traffic Incident Summary
Active as of:
Severity:
Category:
InformationThere was an issue retrieving the traffic information for this location. Please try a different location or try again shortly.
Advertisements
Track Severe Weather on mobile